sensor_id;sensor_type;location;lat;lon;timestamp;P1;durP1;ratioP1;P2;durP2;ratioP2
71955;SDS011;59829;50.562;6.258;2024-01-30T00:00:52;4.10;;;1.98;;
71955;SDS011;59829;50.562;6.258;2024-01-30T00:10:52;4.55;;;1.92;;
71955;SDS011;59829;50.562;6.258;2024-01-30T00:20:53;5.50;;;2.40;;
71955;SDS011;59829;50.562;6.258;2024-01-30T00:30:53;5.93;;;2.10;;
71955;SDS011;59829;50.562;6.258;2024-01-30T00:40:54;4.43;;;1.90;;
71955;SDS011;59829;50.562;6.258;2024-01-30T00:50:54;3.70;;;1.80;;
71955;SDS011;59829;50.562;6.258;2024-01-30T01:00:54;4.85;;;2.00;;
71955;SDS011;59829;50.562;6.258;2024-01-30T01:10:55;3.92;;;1.95;;
71955;SDS011;59829;50.562;6.258;2024-01-30T01:20:55;4.85;;;1.98;;
71955;SDS011;59829;50.562;6.258;2024-01-30T01:30:55;3.22;;;1.73;;
71955;SDS011;59829;50.562;6.258;2024-01-30T01:40:59;4.25;;;1.92;;
71955;SDS011;59829;50.562;6.258;2024-01-30T01:50:59;4.18;;;1.90;;
71955;SDS011;59829;50.562;6.258;2024-01-30T02:01:00;4.45;;;2.00;;
71955;SDS011;59829;50.562;6.258;2024-01-30T02:11:00;4.07;;;1.90;;
71955;SDS011;59829;50.562;6.258;2024-01-30T02:21:04;3.67;;;1.80;;
71955;SDS011;59829;50.562;6.258;2024-01-30T02:31:04;4.40;;;2.00;;
71955;SDS011;59829;50.562;6.258;2024-01-30T02:41:05;4.43;;;1.90;;
71955;SDS011;59829;50.562;6.258;2024-01-30T02:51:05;4.05;;;1.85;;
71955;SDS011;59829;50.562;6.258;2024-01-30T03:01:06;3.63;;;1.77;;
71955;SDS011;59829;50.562;6.258;2024-01-30T03:11:07;4.53;;;1.90;;
71955;SDS011;59829;50.562;6.258;2024-01-30T03:21:07;4.38;;;1.95;;
71955;SDS011;59829;50.562;6.258;2024-01-30T03:31:07;3.92;;;1.75;;
71955;SDS011;59829;50.562;6.258;2024-01-30T03:41:08;4.38;;;1.73;;
71955;SDS011;59829;50.562;6.258;2024-01-30T03:51:09;4.05;;;1.77;;
71955;SDS011;59829;50.562;6.258;2024-01-30T04:01:14;4.57;;;1.98;;
71955;SDS011;59829;50.562;6.258;2024-01-30T04:11:20;3.05;;;1.50;;
71955;SDS011;59829;50.562;6.258;2024-01-30T04:21:20;4.15;;;1.73;;
71955;SDS011;59829;50.562;6.258;2024-01-30T04:31:21;4.20;;;1.90;;
71955;SDS011;59829;50.562;6.258;2024-01-30T04:41:21;4.72;;;2.03;;
71955;SDS011;59829;50.562;6.258;2024-01-30T04:51:22;4.22;;;1.85;;
71955;SDS011;59829;50.562;6.258;2024-01-30T05:01:22;5.35;;;2.00;;
71955;SDS011;59829;50.562;6.258;2024-01-30T05:11:22;4.10;;;1.95;;
71955;SDS011;59829;50.562;6.258;2024-01-30T05:21:23;4.28;;;1.83;;
71955;SDS011;59829;50.562;6.258;2024-01-30T05:31:23;4.30;;;1.95;;
71955;SDS011;59829;50.562;6.258;2024-01-30T05:41:25;4.75;;;2.05;;
71955;SDS011;59829;50.562;6.258;2024-01-30T05:51:25;4.45;;;2.05;;
71955;SDS011;59829;50.562;6.258;2024-01-30T06:01:25;4.25;;;1.98;;
71955;SDS011;59829;50.562;6.258;2024-01-30T06:11:25;3.88;;;1.63;;
71955;SDS011;59829;50.562;6.258;2024-01-30T06:21:26;4.15;;;1.92;;
71955;SDS011;59829;50.562;6.258;2024-01-30T06:31:26;3.78;;;1.85;;
71955;SDS011;59829;50.562;6.258;2024-01-30T06:41:26;4.50;;;1.80;;
71955;SDS011;59829;50.562;6.258;2024-01-30T06:51:27;3.10;;;1.73;;
71955;SDS011;59829;50.562;6.258;2024-01-30T07:01:28;4.68;;;1.95;;
71955;SDS011;59829;50.562;6.258;2024-01-30T07:11:29;4.85;;;2.15;;
71955;SDS011;59829;50.562;6.258;2024-01-30T07:21:29;4.60;;;1.83;;
71955;SDS011;59829;50.562;6.258;2024-01-30T07:31:29;5.57;;;2.20;;
71955;SDS011;59829;50.562;6.258;2024-01-30T07:41:30;4.57;;;2.05;;
71955;SDS011;59829;50.562;6.258;2024-01-30T07:51:30;6.97;;;2.28;;
71955;SDS011;59829;50.562;6.258;2024-01-30T08:01:31;3.15;;;1.63;;
71955;SDS011;59829;50.562;6.258;2024-01-30T08:11:32;5.50;;;1.90;;
71955;SDS011;59829;50.562;6.258;2024-01-30T08:21:32;6.40;;;2.10;;
71955;SDS011;59829;50.562;6.258;2024-01-30T08:31:36;4.78;;;2.10;;
71955;SDS011;59829;50.562;6.258;2024-01-30T08:41:36;4.65;;;1.95;;
71955;SDS011;59829;50.562;6.258;2024-01-30T08:51:36;4.13;;;1.73;;
71955;SDS011;59829;50.562;6.258;2024-01-30T09:01:37;5.55;;;2.10;;
71955;SDS011;59829;50.562;6.258;2024-01-30T09:11:37;14.85;;;2.85;;
71955;SDS011;59829;50.562;6.258;2024-01-30T09:21:37;8.15;;;2.88;;
71955;SDS011;59829;50.562;6.258;2024-01-30T09:31:38;10.32;;;2.28;;
71955;SDS011;59829;50.562;6.258;2024-01-30T09:42:26;8.80;;;2.95;;
71955;SDS011;59829;50.562;6.258;2024-01-30T09:51:59;8.15;;;2.55;;
71955;SDS011;59829;50.562;6.258;2024-01-30T10:02:00;5.65;;;2.08;;
71955;SDS011;59829;50.562;6.258;2024-01-30T10:12:01;8.15;;;2.95;;
71955;SDS011;59829;50.562;6.258;2024-01-30T10:22:03;7.73;;;2.40;;
71955;SDS011;59829;50.562;6.258;2024-01-30T10:32:04;8.68;;;2.50;;
71955;SDS011;59829;50.562;6.258;2024-01-30T10:42:05;3.95;;;1.80;;
71955;SDS011;59829;50.562;6.258;2024-01-30T10:52:06;4.20;;;1.88;;
71955;SDS011;59829;50.562;6.258;2024-01-30T11:02:09;4.37;;;1.70;;
71955;SDS011;59829;50.562;6.258;2024-01-30T11:12:12;3.28;;;1.80;;
71955;SDS011;59829;50.562;6.258;2024-01-30T11:22:12;4.03;;;1.80;;
71955;SDS011;59829;50.562;6.258;2024-01-30T11:32:16;3.42;;;1.70;;
71955;SDS011;59829;50.562;6.258;2024-01-30T11:42:24;3.67;;;1.75;;
71955;SDS011;59829;50.562;6.258;2024-01-30T11:52:27;5.70;;;2.08;;
71955;SDS011;59829;50.562;6.258;2024-01-30T12:02:28;5.95;;;2.63;;
71955;SDS011;59829;50.562;6.258;2024-01-30T12:12:28;3.67;;;1.90;;
71955;SDS011;59829;50.562;6.258;2024-01-30T12:22:30;3.63;;;1.88;;
71955;SDS011;59829;50.562;6.258;2024-01-30T12:32:30;4.32;;;1.92;;
71955;SDS011;59829;50.562;6.258;2024-01-30T12:42:30;3.67;;;2.00;;
71955;SDS011;59829;50.562;6.258;2024-01-30T12:52:30;7.03;;;2.70;;
71955;SDS011;59829;50.562;6.258;2024-01-30T13:02:31;6.78;;;2.90;;
71955;SDS011;59829;50.562;6.258;2024-01-30T13:12:36;7.15;;;2.83;;
71955;SDS011;59829;50.562;6.258;2024-01-30T13:22:38;6.80;;;2.65;;
71955;SDS011;59829;50.562;6.258;2024-01-30T13:32:38;5.22;;;2.47;;
71955;SDS011;59829;50.562;6.258;2024-01-30T13:42:41;4.60;;;2.30;;
71955;SDS011;59829;50.562;6.258;2024-01-30T13:52:41;6.40;;;2.28;;
71955;SDS011;59829;50.562;6.258;2024-01-30T14:02:42;5.85;;;2.38;;
71955;SDS011;59829;50.562;6.258;2024-01-30T14:12:42;4.60;;;2.22;;
71955;SDS011;59829;50.562;6.258;2024-01-30T14:22:47;5.38;;;2.22;;
71955;SDS011;59829;50.562;6.258;2024-01-30T14:32:48;5.95;;;2.45;;
71955;SDS011;59829;50.562;6.258;2024-01-30T14:42:49;5.35;;;2.72;;
71955;SDS011;59829;50.562;6.258;2024-01-30T14:52:49;6.95;;;2.47;;
71955;SDS011;59829;50.562;6.258;2024-01-30T15:02:50;5.85;;;2.85;;
71955;SDS011;59829;50.562;6.258;2024-01-30T15:12:53;6.47;;;2.83;;
71955;SDS011;59829;50.562;6.258;2024-01-30T15:22:53;4.75;;;2.20;;
71955;SDS011;59829;50.562;6.258;2024-01-30T15:32:54;4.88;;;2.67;;
71955;SDS011;59829;50.562;6.258;2024-01-30T15:42:54;6.20;;;2.70;;
71955;SDS011;59829;50.562;6.258;2024-01-30T15:52:55;5.15;;;2.25;;
71955;SDS011;59829;50.562;6.258;2024-01-30T16:02:55;4.78;;;2.38;;
71955;SDS011;59829;50.562;6.258;2024-01-30T16:12:58;6.37;;;3.07;;
71955;SDS011;59829;50.562;6.258;2024-01-30T16:22:59;6.80;;;2.78;;
71955;SDS011;59829;50.562;6.258;2024-01-30T16:32:59;5.93;;;3.08;;
71955;SDS011;59829;50.562;6.258;2024-01-30T16:43:01;6.95;;;2.92;;
71955;SDS011;59829;50.562;6.258;2024-01-30T16:53:03;5.57;;;2.63;;
71955;SDS011;59829;50.562;6.258;2024-01-30T17:03:04;5.88;;;3.00;;
71955;SDS011;59829;50.562;6.258;2024-01-30T17:13:04;4.13;;;2.45;;
71955;SDS011;59829;50.562;6.258;2024-01-30T17:23:05;4.40;;;2.40;;
71955;SDS011;59829;50.562;6.258;2024-01-30T17:33:07;2.33;;;1.33;;
71955;SDS011;59829;50.562;6.258;2024-01-30T17:43:08;2.22;;;1.05;;
71955;SDS011;59829;50.562;6.258;2024-01-30T17:53:08;1.77;;;0.93;;
71955;SDS011;59829;50.562;6.258;2024-01-30T18:03:09;1.83;;;0.80;;
71955;SDS011;59829;50.562;6.258;2024-01-30T18:13:09;0.77;;;0.55;;
71955;SDS011;59829;50.562;6.258;2024-01-30T18:23:13;1.05;;;0.70;;
71955;SDS011;59829;50.562;6.258;2024-01-30T18:33:14;1.50;;;0.85;;
71955;SDS011;59829;50.562;6.258;2024-01-30T18:43:14;1.57;;;0.63;;
71955;SDS011;59829;50.562;6.258;2024-01-30T18:53:32;0.98;;;0.30;;
71955;SDS011;59829;50.562;6.258;2024-01-30T19:03:32;3.10;;;0.40;;
71955;SDS011;59829;50.562;6.258;2024-01-30T19:13:33;1.75;;;0.43;;
71955;SDS011;59829;50.562;6.258;2024-01-30T19:23:33;1.10;;;0.40;;
71955;SDS011;59829;50.562;6.258;2024-01-30T19:33:34;2.20;;;0.50;;
71955;SDS011;59829;50.562;6.258;2024-01-30T19:43:34;2.60;;;0.55;;
71955;SDS011;59829;50.562;6.258;2024-01-30T19:53:34;0.82;;;0.50;;
71955;SDS011;59829;50.562;6.258;2024-01-30T20:03:38;1.52;;;0.57;;
71955;SDS011;59829;50.562;6.258;2024-01-30T20:13:39;1.30;;;0.60;;
71955;SDS011;59829;50.562;6.258;2024-01-30T20:23:40;1.10;;;0.60;;
71955;SDS011;59829;50.562;6.258;2024-01-30T20:33:40;2.00;;;0.60;;
71955;SDS011;59829;50.562;6.258;2024-01-30T20:43:40;2.60;;;0.77;;
71955;SDS011;59829;50.562;6.258;2024-01-30T20:53:41;2.47;;;0.87;;
71955;SDS011;59829;50.562;6.258;2024-01-30T21:03:44;1.48;;;0.70;;
71955;SDS011;59829;50.562;6.258;2024-01-30T21:13:44;1.30;;;0.65;;
71955;SDS011;59829;50.562;6.258;2024-01-30T21:23:45;0.80;;;0.50;;
71955;SDS011;59829;50.562;6.258;2024-01-30T21:33:46;2.28;;;0.60;;
71955;SDS011;59829;50.562;6.258;2024-01-30T21:43:47;1.48;;;0.60;;
71955;SDS011;59829;50.562;6.258;2024-01-30T21:53:47;1.50;;;0.60;;
71955;SDS011;59829;50.562;6.258;2024-01-30T22:03:47;1.30;;;0.52;;
71955;SDS011;59829;50.562;6.258;2024-01-30T22:13:49;1.77;;;0.63;;
71955;SDS011;59829;50.562;6.258;2024-01-30T22:23:50;1.15;;;0.60;;
71955;SDS011;59829;50.562;6.258;2024-01-30T22:33:50;1.92;;;0.68;;
71955;SDS011;59829;50.562;6.258;2024-01-30T22:43:51;2.53;;;0.73;;
71955;SDS011;59829;50.562;6.258;2024-01-30T22:53:51;4.00;;;0.90;;
71955;SDS011;59829;50.562;6.258;2024-01-30T23:03:51;1.98;;;0.80;;
71955;SDS011;59829;50.562;6.258;2024-01-30T23:13:52;1.95;;;0.80;;
71955;SDS011;59829;50.562;6.258;2024-01-30T23:23:52;4.05;;;1.55;;
71955;SDS011;59829;50.562;6.258;2024-01-30T23:33:52;1.52;;;0.95;;
71955;SDS011;59829;50.562;6.258;2024-01-30T23:43:52;2.65;;;1.23;;
71955;SDS011;59829;50.562;6.258;2024-01-30T23:53:53;2.40;;;1.08;;
